^^
Station Historical Data
Daily Summary for December 9, 2017 Units:  English    Metric   Both
« Previous Day
Next Day »
Daily Weekly Monthly Yearly Custom
  High: Low: Average:
Temperature: 100.6 °F 72.5 °F 83.1 °F
Dew Point: 51.6 °F 37.6 °F 47.6 °F
Humidity: 44% 12% 31%
Wind Speed: 14.1mph 0.0mph 3.8mph
Wind Gust: 24.0mph - -
Wind- - South
Pressure: 29.80 in 29.64 in -
Precipitation: 0.00 in    
Historical Graphs
 
 
Tabular Data for December 9, 2017
Time Temperature Dew Point Pressure Wind Wind Speed Wind Gust Humidity Rainfall Rate (Hourly) solar Conditions
00:00 83.5 °F 50.5 °F 29.80 in South 2.9 mph 6.0 mph 32% 0.00 in 0.0 W/m2
00:10 82.8 °F 49.1 °F 29.80 in South 6.0 mph 6.0 mph 31% 0.00 in 0.0 W/m2
00:15 82.4 °F 49.6 °F 29.80 in South 4.9 mph 6.0 mph 32% 0.00 in 0.0 W/m2
00:20 82.2 °F 49.5 °F 29.80 in South 4.9 mph 6.0 mph 32% 0.00 in 0.0 W/m2
00:26 82.0 °F 50.2 °F 29.79 in South 4.0 mph 6.0 mph 33% 0.00 in 0.0 W/m2
00:40 82.0 °F 49.3 °F 29.79 in South 4.9 mph 8.0 mph 32% 0.00 in 0.0 W/m2
00:55 81.3 °F 49.5 °F 29.78 in South 2.9 mph 5.0 mph 33% 0.00 in 0.0 W/m2
01:00 81.3 °F 48.6 °F 29.78 in South 2.9 mph 4.0 mph 32% 0.00 in 0.0 W/m2
01:11 80.6 °F 48.9 °F 29.78 in South 2.9 mph 4.0 mph 33% 0.00 in 0.0 W/m2
01:26 80.2 °F 48.6 °F 29.78 in South 6.0 mph 7.0 mph 33% 0.00 in 0.0 W/m2
01:37 80.4 °F 48.7 °F 29.78 in South 2.9 mph 8.0 mph 33% 0.00 in 0.0 W/m2
01:47 79.5 °F 47.8 °F 29.78 in South 6.0 mph 7.0 mph 33% 0.00 in 0.0 W/m2
02:02 79.3 °F 48.6 °F 29.77 in South 2.9 mph 5.0 mph 34% 0.00 in 0.0 W/m2
02:07 79.2 °F 48.4 °F 29.77 in South 6.0 mph 6.0 mph 34% 0.00 in 0.0 W/m2
02:22 78.3 °F 49.1 °F 29.77 in South 4.0 mph 5.0 mph 36% 0.00 in 0.0 W/m2
02:27 78.1 °F 48.9 °F 29.77 in South 4.0 mph 4.0 mph 36% 0.00 in 0.0 W/m2
02:42 77.4 °F 49.1 °F 29.76 in South 2.9 mph 4.0 mph 37% 0.00 in 0.0 W/m2
02:48 77.2 °F 48.9 °F 29.76 in South 2.9 mph 4.0 mph 37% 0.00 in 0.0 W/m2
02:53 76.8 °F 48.6 °F 29.76 in Calm     37% 0.00 in 0.0 W/m2
02:58 76.6 °F 48.4 °F 29.76 in Calm     37% 0.00 in 0.0 W/m2
03:03 76.3 °F 48.0 °F 29.76 in Calm     37% 0.00 in 0.0 W/m2
03:09 76.1 °F 48.0 °F 29.76 in Calm     37% 0.00 in 0.0 W/m2
03:14 75.9 °F 48.6 °F 29.76 in Calm     38% 0.00 in 0.0 W/m2
03:35 75.4 °F 48.7 °F 29.75 in Calm     39% 0.00 in 0.0 W/m2
03:41 75.0 °F 48.4 °F 29.75 in Calm     39% 0.00 in 0.0 W/m2
03:46 75.0 °F 48.4 °F 29.75 in Calm     39% 0.00 in 0.0 W/m2
03:56 74.7 °F 48.0 °F 29.75 in Calm     39% 0.00 in 0.0 W/m2
04:01 74.5 °F 48.6 °F 29.75 in Calm     40% 0.00 in 0.0 W/m2
04:06 74.5 °F 48.6 °F 29.75 in Calm     40% 0.00 in 0.0 W/m2
04:11 74.1 °F 48.2 °F 29.75 in Calm     40% 0.00 in 0.0 W/m2
04:16 74.1 °F 48.9 °F 29.75 in Calm     41% 0.00 in 0.0 W/m2
04:21 74.1 °F 48.2 °F 29.75 in Calm     40% 0.00 in 0.0 W/m2
04:32 74.1 °F 48.9 °F 29.75 in Calm     41% 0.00 in 0.0 W/m2
04:37 73.9 °F 48.7 °F 29.75 in Calm     41% 0.00 in 0.0 W/m2
04:42 73.8 °F 48.6 °F 29.75 in Calm     41% 0.00 in 0.0 W/m2
04:47 73.8 °F 49.3 °F 29.75 in Calm     42% 0.00 in 0.0 W/m2
04:53 73.9 °F 49.5 °F 29.75 in Calm     42% 0.00 in 0.0 W/m2
05:19 74.7 °F 49.5 °F 29.76 in Calm     41% 0.00 in 0.0 W/m2
05:45 73.8 °F 49.3 °F 29.75 in Calm     42% 0.00 in 0.0 W/m2
05:51 73.4 °F 48.9 °F 29.75 in Calm     42% 0.00 in 5.0 W/m2
05:56 73.0 °F 48.6 °F 29.76 in Calm     42% 0.00 in 7.0 W/m2
06:06 72.5 °F 49.3 °F 29.76 in Calm     44% 0.00 in 16.0 W/m2
06:22 73.2 °F 50.0 °F 29.76 in Calm     44% 0.00 in 46.0 W/m2
06:27 73.2 °F 50.0 °F 29.76 in Calm     44% 0.00 in 46.0 W/m2
06:42 75.4 °F 50.7 °F 29.76 in Calm     42% 0.00 in 105.0 W/m2
06:47 75.9 °F 50.5 °F 29.77 in Calm     41% 0.00 in 128.0 W/m2
06:53 76.5 °F 50.4 °F 29.77 in Calm     40% 0.00 in 149.0 W/m2
06:58 77.2 °F 50.4 °F 29.77 in Calm     39% 0.00 in 165.0 W/m2
07:09 78.4 °F 50.7 °F 29.76 in Calm     38% 0.00 in 211.0 W/m2
07:18 79.3 °F 49.3 °F 29.76 in Calm     35% 0.00 in 246.0 W/m2
07:28 79.7 °F 49.6 °F 29.76 in Calm     35% 0.00 in 262.0 W/m2
07:37 80.2 °F 49.3 °F 29.76 in Calm     34% 0.00 in 297.0 W/m2
07:46 81.0 °F 50.0 °F 29.76 in South 6.9 mph 7.0 mph 34% 0.00 in 332.0 W/m2
09:10 85.8 °F 48.9 °F 29.76 in South 8.9 mph 9.0 mph 28% 0.00 in 612.0 W/m2
09:15 86.2 °F 49.3 °F 29.76 in South 8.1 mph 10.0 mph 28% 0.00 in 628.0 W/m2
09:40 87.1 °F 48.0 °F 29.76 in South 6.9 mph 9.0 mph 26% 0.00 in 700.0 W/m2
09:50 87.6 °F 48.6 °F 29.76 in South 6.0 mph 6.0 mph 26% 0.00 in 729.0 W/m2
10:01 88.2 °F 47.8 °F 29.76 in South 4.9 mph 7.0 mph 25% 0.00 in 754.0 W/m2
10:16 89.4 °F 47.8 °F 29.76 in Calm     24% 0.00 in 793.0 W/m2
10:22 90.0 °F 48.4 °F 29.75 in Calm     24% 0.00 in 807.0 W/m2
10:31 90.3 °F 48.6 °F 29.75 in Calm     24% 0.00 in 828.0 W/m2
11:02 91.8 °F 47.5 °F 29.75 in Calm     22% 0.00 in 888.0 W/m2
11:14 92.1 °F 47.8 °F 29.75 in Calm     22% 0.00 in 902.0 W/m2
11:19 93.0 °F 48.6 °F 29.74 in Calm     22% 0.00 in 912.0 W/m2
11:39 93.7 °F 47.8 °F 29.74 in South 6.0 mph 6.0 mph 21% 0.00 in 939.0 W/m2
11:54 94.5 °F 47.1 °F 29.73 in South 0.9 mph 4.0 mph 20% 0.00 in 953.0 W/m2
12:04 94.6 °F 47.3 °F 29.73 in Calm   4.0 mph 20% 0.00 in 960.0 W/m2
12:09 94.5 °F 47.1 °F 29.73 in Calm     20% 0.00 in 962.0 W/m2
12:19 95.4 °F 46.6 °F 29.72 in Calm   5.0 mph 19% 0.00 in 965.0 W/m2
12:24 95.4 °F 46.6 °F 29.72 in South 8.1 mph 8.1 mph 19% 0.00 in 969.0 W/m2
12:35 95.7 °F 45.5 °F 29.72 in Calm   4.0 mph 18% 0.00 in 972.0 W/m2
12:46 96.3 °F 45.9 °F 29.71 in South 0.9 mph 4.0 mph 18% 0.00 in 967.0 W/m2
12:52 96.4 °F 46.0 °F 29.71 in Calm   2.0 mph 18% 0.00 in 972.0 W/m2
13:01 97.3 °F 45.3 °F 29.70 in Calm   7.0 mph 17% 0.00 in 972.0 W/m2
13:05 97.3 °F 45.3 °F 29.70 in South 4.9 mph 10.0 mph 17% 0.00 in 974.0 W/m2
13:13 97.5 °F 45.3 °F 29.70 in Calm   5.0 mph 17% 0.00 in 970.0 W/m2
13:46 97.3 °F 41.9 °F 29.68 in Calm     15% 0.00 in 951.0 W/m2
14:13 99.0 °F 41.4 °F 29.68 in South 4.9 mph 6.0 mph 14% 0.00 in 946.0 W/m2
14:27 99.1 °F 39.7 °F 29.67 in South 14.1 mph 17.0 mph 13% 0.00 in 905.0 W/m2
14:40 99.0 °F 37.6 °F 29.67 in South 14.1 mph 17.0 mph 12% 0.00 in 889.0 W/m2
15:34 100.6 °F 40.8 °F 29.65 in South 11.0 mph 12.0 mph 13% 0.00 in 749.0 W/m2
15:45 99.9 °F 40.3 °F 29.64 in SSW 6.9 mph 13.0 mph 13% 0.00 in 726.0 W/m2
15:53 100.2 °F 40.5 °F 29.64 in SW 8.9 mph 17.0 mph 13% 0.00 in 700.0 W/m2
20:29 87.3 °F 51.1 °F 29.67 in SSW 11.0 mph 24.0 mph 29% 0.00 in 0.0 W/m2
20:34 86.7 °F 51.6 °F 29.67 in SSW 14.1 mph 19.0 mph 30% 0.00 in 0.0 W/m2
20:49 85.6 °F 50.7 °F 29.68 in SSW 13.0 mph 20.0 mph 30% 0.00 in 0.0 W/m2
21:05 85.3 °F 50.4 °F 29.69 in South 13.0 mph 18.0 mph 30% 0.00 in 0.0 W/m2
21:19 84.4 °F 49.6 °F 29.69 in SSW 11.0 mph 17.0 mph 30% 0.00 in 0.0 W/m2
21:34 83.5 °F 49.6 °F 29.70 in SSW 13.0 mph 18.0 mph 31% 0.00 in 0.0 W/m2
21:43 82.9 °F 49.3 °F 29.70 in SSW 14.1 mph 17.0 mph 31% 0.00 in 0.0 W/m2
23:00 79.7 °F 42.8 °F 29.72 in SSW 12.1 mph 15.0 mph 27% 0.00 in 0.0 W/m2
23:10 79.3 °F 42.4 °F 29.72 in SSW 12.1 mph 15.0 mph 27% 0.00 in 0.0 W/m2
23:15 79.2 °F 42.3 °F 29.71 in SSW 14.1 mph 17.0 mph 27% 0.00 in 0.0 W/m2
23:26 78.8 °F 44.8 °F 29.72 in SSW 12.1 mph 13.0 mph 30% 0.00 in 0.0 W/m2
23:46 78.3 °F 41.5 °F 29.71 in SSW 12.1 mph 14.0 mph 27% 0.00 in 0.0 W/m2
23:51 78.1 °F 41.4 °F 29.71 in SSW 12.1 mph 13.0 mph 27% 0.00 in 0.0 W/m2
23:56 77.9 °F 40.3 °F 29.71 in SSW 12.1 mph 14.0 mph 26% 0.00 in 0.0 W/m2
Canyon Roadhouse, Fishriver Canyon, Namibia
Compliments of Weather Underground - 2 mb